Time;durP1;ratioP1;P1;durP2;ratioP2;P2;SDS_P1;SDS_P2;PMS_P1;PMS_P2;Temp;Humidity;BMP_temperature;BMP_pressure;BME280_temperature;BME280_humidity;BME280_pressure;Samples;Min_cycle;Max_cycle;Signal;HPM_P1;HPM_P2
2023/05/17 00:01:00;;;;;;;4.43;3.60;;;7.90;94.80;;;;;;5091009;27;20475;-60
2023/05/17 00:03:27;;;;;;;14.00;4.83;;;8.00;94.40;;;;;;5073838;28;20876;-60
2023/05/17 00:05:53;;;;;;;4.73;4.33;;;8.00;94.60;;;;;;5078487;28;20477;-61
2023/05/17 00:08:20;;;;;;;19.83;4.90;;;8.00;94.70;;;;;;5072381;28;20479;-60
2023/05/17 00:10:48;;;;;;;6.87;4.00;;;8.00;94.90;;;;;;5080332;28;20465;-61
2023/05/17 00:13:15;;;;;;;13.20;4.93;;;8.00;95.00;;;;;;5067068;28;20655;-61
2023/05/17 00:15:42;;;;;;;8.07;3.70;;;7.50;94.10;;;;;;5082580;28;20493;-61
2023/05/17 00:18:09;;;;;;;6.53;3.67;;;7.90;94.50;;;;;;5079036;27;20486;-60
2023/05/17 00:20:36;;;;;;;4.60;3.43;;;7.90;94.10;;;;;;5074971;28;20488;-61
2023/05/17 00:23:02;;;;;;;3.63;3.30;;;7.90;94.30;;;;;;5074957;28;20486;-61
2023/05/17 00:25:29;;;;;;;8.00;4.00;;;7.90;94.10;;;;;;5094473;27;20481;-61
2023/05/17 00:27:57;;;;;;;7.30;4.47;;;7.90;94.10;;;;;;5085678;27;20875;-60
2023/05/17 00:30:24;;;;;;;6.20;3.00;;;7.90;94.10;;;;;;5089004;27;20552;-61
2023/05/17 00:32:51;;;;;;;5.03;3.57;;;7.90;94.10;;;;;;5064731;28;20891;-61
2023/05/17 00:35:18;;;;;;;9.90;3.97;;;7.80;94.40;;;;;;5078497;28;20478;-60
2023/05/17 00:37:46;;;;;;;5.60;4.27;;;7.70;94.60;;;;;;5086593;28;20478;-61
2023/05/17 00:40:14;;;;;;;6.87;4.53;;;7.70;94.80;;;;;;5087333;28;20772;-60
2023/05/17 00:42:41;;;;;;;7.03;4.57;;;7.70;94.70;;;;;;5097136;28;20877;-61
2023/05/17 00:45:10;;;;;;;18.27;4.47;;;7.70;94.50;;;;;;5086477;28;20557;-60
2023/05/17 00:47:37;;;;;;;5.97;4.27;;;7.70;94.30;;;;;;5083506;28;20541;-61
2023/05/17 00:50:05;;;;;;;5.30;4.00;;;7.70;94.20;;;;;;5085427;28;20476;-60
2023/05/17 00:52:32;;;;;;;5.30;3.77;;;7.60;94.10;;;;;;5095065;28;20726;-60
2023/05/17 00:54:59;;;;;;;5.13;4.30;;;7.60;94.30;;;;;;5066987;27;20487;-60
2023/05/17 00:57:27;;;;;;;8.57;4.30;;;7.50;94.30;;;;;;5069073;28;20565;-61
2023/05/17 00:59:55;;;;;;;5.93;4.40;;;7.50;94.30;;;;;;5079866;27;20473;-60
2023/05/17 01:02:24;;;;;;;4.97;3.53;;;7.50;94.30;;;;;;5094953;28;20478;-60
2023/05/17 01:04:51;;;;;;;4.80;4.40;;;7.40;94.00;;;;;;5092603;28;20480;-60
2023/05/17 01:07:17;;;;;;;8.30;3.87;;;7.40;94.40;;;;;;5068743;28;20842;-60
2023/05/17 01:09:45;;;;;;;9.23;3.83;;;7.40;94.10;;;;;;5084551;28;20480;-60
2023/05/17 01:12:23;;;;;;;7.87;5.43;;;7.40;94.20;;;;;;5075784;28;20481;-59
2023/05/17 01:15:02;;;;;;;7.73;4.50;;;7.40;94.30;;;;;;5080570;28;20481;-60
2023/05/17 01:17:38;;;;;;;6.23;4.30;;;7.40;94.40;;;;;;5078813;28;20494;-60
2023/05/17 01:20:11;;;;;;;12.47;4.80;;;7.40;94.70;;;;;;5088599;27;20480;-60
2023/05/17 01:22:45;;;;;;;6.80;4.50;;;7.40;95.00;;;;;;5082598;27;20469;-60
2023/05/17 01:25:23;;;;;;;5.97;4.00;;;7.40;95.00;;;;;;5075517;27;20997;-60
2023/05/17 01:27:54;;;;;;;3.83;3.30;;;7.40;95.00;;;;;;5099815;27;20461;-60
2023/05/17 01:30:22;;;;;;;4.03;3.63;;;7.40;94.90;;;;;;5083551;28;20457;-60
2023/05/17 01:32:49;;;;;;;9.50;4.30;;;7.40;94.90;;;;;;5075986;27;20477;-60
2023/05/17 01:35:16;;;;;;;9.10;3.80;;;8.10;95.10;;;;;;5074336;27;20487;-60
2023/05/17 01:37:43;;;;;;;8.20;4.10;;;7.30;94.40;;;;;;5082306;28;20828;-60
2023/05/17 01:40:11;;;;;;;6.23;4.33;;;7.20;94.60;;;;;;5095704;27;20474;-60
2023/05/17 01:42:41;;;;;;;4.53;3.17;;;7.20;94.40;;;;;;5095135;28;20481;-60
2023/05/17 01:45:16;;;;;;;5.37;3.70;;;7.20;94.60;;;;;;5075911;28;20483;-60
2023/05/17 01:47:57;;;;;;;9.63;3.60;;;7.20;94.70;;;;;;5086007;28;20679;-60
2023/05/17 01:50:26;;;;;;;8.10;4.23;;;7.20;94.50;;;;;;5066957;27;20488;-60
2023/05/17 01:52:55;;;;;;;4.30;3.87;;;7.20;94.80;;;;;;5088742;27;20974;-60
2023/05/17 01:55:30;;;;;;;5.00;3.70;;;7.20;94.90;;;;;;5070573;27;20875;-60
2023/05/17 01:57:57;;;;;;;5.37;4.40;;;7.20;94.90;;;;;;5094196;27;20485;-60
2023/05/17 02:00:29;;;;;;;7.93;4.10;;;7.20;94.90;;;;;;5083719;28;20592;-60
2023/05/17 02:02:56;;;;;;;4.80;3.73;;;7.20;95.20;;;;;;5072341;28;20543;-61
2023/05/17 02:05:22;;;;;;;4.70;3.30;;;7.20;95.10;;;;;;5083024;27;20505;-60
2023/05/17 02:07:49;;;;;;;4.07;3.77;;;7.10;94.90;;;;;;5096909;27;20735;-60
2023/05/17 02:10:16;;;;;;;8.97;3.70;;;7.10;94.90;;;;;;5109683;27;21094;-61
2023/05/17 02:12:43;;;;;;;6.73;4.13;;;7.00;94.90;;;;;;5081746;27;20485;-60
2023/05/17 02:15:12;;;;;;;11.67;4.03;;;7.00;94.70;;;;;;5097258;27;20489;-60
2023/05/17 02:17:40;;;;;;;5.03;4.13;;;6.90;94.80;;;;;;5085687;28;20568;-60
2023/05/17 02:20:10;;;;;;;4.93;4.40;;;6.80;94.70;;;;;;5089079;28;20956;-60
2023/05/17 02:22:37;;;;;;;11.13;3.60;;;6.60;95.40;;;;;;5075755;27;20561;-61
2023/05/17 02:25:05;;;;;;;6.97;4.20;;;6.70;95.50;;;;;;5091262;27;20481;-60
2023/05/17 02:27:31;;;;;;;9.53;4.40;;;6.70;95.20;;;;;;5072485;28;21376;-60
2023/05/17 02:29:58;;;;;;;4.63;4.17;;;6.70;95.60;;;;;;5097506;27;20694;-60
2023/05/17 02:32:25;;;;;;;4.53;3.87;;;6.60;95.80;;;;;;5083007;27;20488;-60
2023/05/17 02:34:53;;;;;;;9.03;4.30;;;6.60;95.90;;;;;;5099008;27;20467;-60
2023/05/17 02:37:20;;;;;;;5.20;3.57;;;6.60;95.50;;;;;;5071203;28;20514;-61
2023/05/17 02:39:47;;;;;;;6.47;3.87;;;6.50;94.80;;;;;;5074710;28;21187;-61
2023/05/17 02:42:14;;;;;;;6.67;4.10;;;6.50;95.00;;;;;;5077478;27;20484;-61
2023/05/17 02:44:41;;;;;;;6.97;3.87;;;6.50;94.90;;;;;;5115843;27;20513;-61
2023/05/17 02:47:08;;;;;;;7.50;3.97;;;6.60;94.90;;;;;;5085834;27;20556;-60
2023/05/17 02:49:34;;;;;;;10.23;4.03;;;6.50;94.60;;;;;;5095882;27;20481;-61
2023/05/17 02:52:03;;;;;;;4.97;4.40;;;6.50;94.80;;;;;;5085904;27;20489;-61
2023/05/17 02:54:30;;;;;;;10.37;4.20;;;6.50;94.80;;;;;;5099782;27;20477;-61
2023/05/17 02:56:56;;;;;;;8.17;4.67;;;6.50;94.90;;;;;;5075116;27;20479;-60
2023/05/17 02:59:23;;;;;;;5.40;4.17;;;6.50;94.90;;;;;;5081042;27;20474;-60
2023/05/17 03:01:50;;;;;;;4.67;4.27;;;6.50;94.70;;;;;;5070056;27;20703;-60
2023/05/17 03:04:18;;;;;;;5.33;4.40;;;6.50;94.50;;;;;;5072218;27;20484;-60
2023/05/17 03:06:45;;;;;;;6.33;4.47;;;6.50;94.80;;;;;;5087529;27;20563;-60
2023/05/17 03:09:14;;;;;;;6.47;3.90;;;6.50;94.90;;;;;;5045188;27;20518;-60
2023/05/17 03:11:40;;;;;;;4.97;4.10;;;6.50;94.90;;;;;;5097145;27;21269;-60
2023/05/17 03:14:07;;;;;;;5.27;3.93;;;6.40;94.90;;;;;;5073950;28;21025;-60
2023/05/17 03:16:34;;;;;;;4.73;3.47;;;6.30;94.60;;;;;;5068958;28;20551;-60
2023/05/17 03:19:01;;;;;;;7.40;4.20;;;6.30;94.90;;;;;;5079730;28;21305;-60
2023/05/17 03:21:28;;;;;;;8.07;3.70;;;6.30;94.70;;;;;;5085742;27;20488;-60
2023/05/17 03:23:54;;;;;;;6.83;3.63;;;6.30;94.60;;;;;;5098164;27;21046;-60
2023/05/17 03:26:23;;;;;;;9.17;4.30;;;6.20;94.50;;;;;;5078595;27;20829;-60
2023/05/17 03:28:50;;;;;;;5.30;3.60;;;6.20;94.60;;;;;;5088891;27;20505;-60
2023/05/17 03:31:17;;;;;;;4.97;3.70;;;6.20;94.60;;;;;;5076236;28;20797;-60
2023/05/17 03:33:45;;;;;;;4.20;3.27;;;6.20;94.60;;;;;;5067498;28;20628;-60
2023/05/17 03:36:12;;;;;;;5.13;3.60;;;6.20;94.70;;;;;;5078488;28;21172;-59
2023/05/17 03:38:38;;;;;;;4.40;4.00;;;6.20;94.60;;;;;;5058132;27;20514;-60
2023/05/17 03:41:05;;;;;;;4.77;3.73;;;6.20;94.80;;;;;;5095653;27;20489;-60
2023/05/17 03:43:34;;;;;;;6.00;3.30;;;6.20;94.70;;;;;;5088593;27;20479;-60
2023/05/17 03:46:00;;;;;;;5.40;4.47;;;6.30;94.80;;;;;;5087738;27;20497;-60
2023/05/17 03:48:27;;;;;;;4.93;4.00;;;6.20;94.50;;;;;;5088951;27;20461;-60
2023/05/17 03:50:54;;;;;;;7.93;4.43;;;6.20;94.80;;;;;;5080207;27;21006;-60
2023/05/17 03:53:24;;;;;;;4.40;3.30;;;6.20;94.60;;;;;;5065794;27;20492;-60
2023/05/17 03:55:50;;;;;;;5.17;3.57;;;6.20;94.40;;;;;;5096682;27;20490;-60
2023/05/17 03:58:18;;;;;;;3.50;3.20;;;6.10;94.60;;;;;;5064810;28;20530;-60
2023/05/17 04:00:46;;;;;;;5.23;4.00;;;6.00;94.40;;;;;;5077502;27;20480;-60
2023/05/17 04:03:13;;;;;;;5.10;4.00;;;5.90;94.40;;;;;;5073792;27;20520;-60
2023/05/17 04:05:40;;;;;;;5.97;3.97;;;5.80;94.50;;;;;;5090424;28;20502;-60
2023/05/17 04:08:07;;;;;;;5.40;4.03;;;5.90;94.70;;;;;;5080616;27;20470;-60
2023/05/17 04:10:34;;;;;;;5.77;4.43;;;5.90;95.00;;;;;;5082643;28;20466;-60
2023/05/17 04:13:01;;;;;;;4.80;4.23;;;5.90;95.00;;;;;;5081115;27;20969;-60
2023/05/17 04:15:28;;;;;;;3.93;3.50;;;5.90;95.10;;;;;;5073590;28;20481;-60
2023/05/17 04:17:56;;;;;;;5.90;4.50;;;5.90;95.40;;;;;;5067726;28;20494;-60
2023/05/17 04:20:23;;;;;;;6.50;3.77;;;6.00;95.50;;;;;;5072672;28;20477;-61
2023/05/17 04:22:50;;;;;;;5.47;4.00;;;6.00;95.60;;;;;;5065898;27;20480;-61
2023/05/17 04:25:17;;;;;;;5.80;4.27;;;6.00;95.80;;;;;;5103245;27;20497;-60
2023/05/17 04:27:44;;;;;;;4.10;3.70;;;6.10;95.40;;;;;;5098400;27;20849;-60
2023/05/17 04:30:12;;;;;;;4.40;3.80;;;6.20;95.20;;;;;;5088840;27;21441;-60
2023/05/17 04:32:39;;;;;;;4.27;3.90;;;6.10;95.00;;;;;;5113283;27;20481;-60
2023/05/17 04:35:08;;;;;;;4.60;3.50;;;6.20;95.00;;;;;;5086180;27;20476;-60
2023/05/17 04:37:38;;;;;;;4.17;3.77;;;6.10;95.00;;;;;;5079151;27;20487;-60
2023/05/17 04:40:06;;;;;;;4.80;3.47;;;6.30;95.20;;;;;;5084145;28;20478;-60
2023/05/17 04:42:33;;;;;;;5.50;4.03;;;6.30;95.30;;;;;;5071642;28;20489;-60
2023/05/17 04:45:00;;;;;;;7.50;4.87;;;6.30;95.70;;;;;;5069171;28;20478;-60
2023/05/17 04:47:27;;;;;;;9.10;4.67;;;6.30;96.00;;;;;;5077925;28;20934;-61
2023/05/17 04:49:55;;;;;;;4.80;3.67;;;7.10;96.00;;;;;;5070087;28;20469;-60
2023/05/17 04:52:23;;;;;;;5.83;3.63;;;6.30;95.60;;;;;;5075555;28;21106;-61
2023/05/17 04:54:52;;;;;;;4.73;4.33;;;6.30;95.80;;;;;;5075678;28;20478;-60
2023/05/17 04:57:20;;;;;;;4.10;3.43;;;6.40;95.70;;;;;;5071932;28;20478;-61
2023/05/17 04:59:47;;;;;;;5.07;3.87;;;6.40;95.90;;;;;;5077062;28;20961;-60
2023/05/17 05:02:13;;;;;;;5.83;4.40;;;6.40;96.20;;;;;;5085765;27;20496;-60
2023/05/17 05:04:41;;;;;;;11.73;5.10;;;6.40;96.40;;;;;;5081309;28;20978;-60
2023/05/17 05:07:07;;;;;;;5.53;4.53;;;6.40;96.80;;;;;;5091950;27;20512;-60
2023/05/17 05:09:36;;;;;;;8.97;7.73;;;6.50;96.80;;;;;;5083737;28;20489;-60
2023/05/17 05:12:02;;;;;;;29.20;12.80;;;6.60;97.00;;;;;;5070464;28;20508;-60
2023/05/17 05:14:29;;;;;;;16.13;8.33;;;6.70;97.10;;;;;;5090071;27;20710;-61
2023/05/17 05:16:56;;;;;;;14.20;8.60;;;6.90;97.50;;;;;;5088497;27;20900;-60
2023/05/17 05:19:23;;;;;;;12.13;7.30;;;7.00;97.90;;;;;;5078506;28;20505;-61
2023/05/17 05:21:50;;;;;;;6.53;5.80;;;7.10;98.10;;;;;;5066122;27;20477;-60
2023/05/17 05:24:17;;;;;;;6.90;5.00;;;7.40;99.50;;;;;;5096184;27;20831;-60
2023/05/17 05:26:45;;;;;;;15.60;6.10;;;7.60;99.70;;;;;;5078916;27;20492;-60
2023/05/17 05:29:12;;;;;;;9.40;5.63;;;7.90;99.90;;;;;;5072425;27;20904;-60
2023/05/17 05:31:39;;;;;;;13.27;6.10;;;7.90;99.90;;;;;;5089028;28;20470;-60
2023/05/17 05:34:06;;;;;;;14.70;5.87;;;8.30;99.90;;;;;;5080952;28;20869;-60
2023/05/17 05:36:33;;;;;;;22.07;5.67;;;8.40;99.90;;;;;;5090193;28;20489;-60
2023/05/17 05:39:00;;;;;;;12.77;7.87;;;8.70;99.90;;;;;;5094322;27;20472;-60
2023/05/17 05:41:26;;;;;;;9.00;6.20;;;8.90;99.90;;;;;;5088063;27;20488;-60
2023/05/17 05:43:55;;;;;;;14.83;6.17;;;9.20;99.90;;;;;;5106452;27;20510;-60
2023/05/17 05:46:21;;;;;;;12.73;5.60;;;9.30;99.90;;;;;;5068204;27;20500;-60
2023/05/17 05:48:48;;;;;;;10.60;6.07;;;9.40;99.90;;;;;;5087565;27;20481;-60
2023/05/17 05:51:15;;;;;;;10.00;5.80;;;9.70;99.90;;;;;;5100761;27;20481;-60
2023/05/17 05:53:42;;;;;;;11.83;6.60;;;9.90;99.60;;;;;;5083401;28;20478;-60
2023/05/17 05:56:09;;;;;;;12.27;6.23;;;10.00;99.00;;;;;;5074831;28;20837;-59
2023/05/17 05:58:36;;;;;;;13.00;6.00;;;10.20;99.20;;;;;;5076191;28;20557;-60
2023/05/17 06:01:05;;;;;;;17.03;6.67;;;10.40;98.80;;;;;;5073081;28;20484;-60
2023/05/17 06:03:32;;;;;;;26.63;7.03;;;10.60;98.30;;;;;;5077767;27;20469;-60
2023/05/17 06:05:59;;;;;;;11.67;6.13;;;10.70;98.40;;;;;;5077681;27;20481;-60
2023/05/17 06:08:26;;;;;;;12.77;5.57;;;10.80;98.60;;;;;;5097639;27;20496;-60
2023/05/17 06:10:54;;;;;;;11.67;5.97;;;10.90;98.10;;;;;;5087326;27;20827;-60
2023/05/17 06:13:21;;;;;;;11.90;5.37;;;11.00;97.70;;;;;;5051112;27;20473;-60
2023/05/17 06:15:47;;;;;;;14.10;7.40;;;11.10;97.70;;;;;;5091270;27;20777;-60
2023/05/17 06:18:16;;;;;;;12.77;6.70;;;11.20;97.50;;;;;;5083813;27;20882;-60
2023/05/17 06:20:42;;;;;;;9.90;5.00;;;11.30;97.60;;;;;;5100503;27;20838;-60
2023/05/17 06:23:09;;;;;;;13.13;7.23;;;11.60;97.30;;;;;;5084147;28;20480;-61
2023/05/17 06:25:36;;;;;;;8.40;5.87;;;11.60;97.50;;;;;;5076648;27;20473;-60
2023/05/17 06:28:04;;;;;;;6.80;4.93;;;11.70;97.30;;;;;;5089110;27;20496;-60
2023/05/17 06:30:30;;;;;;;12.00;5.37;;;11.80;96.50;;;;;;5095758;27;20508;-60
2023/05/17 06:32:57;;;;;;;14.23;5.70;;;12.00;96.80;;;;;;5076234;28;20482;-60
2023/05/17 06:35:25;;;;;;;6.83;4.70;;;12.10;96.50;;;;;;5081976;27;20833;-60
2023/05/17 06:37:52;;;;;;;13.63;6.27;;;12.40;95.20;;;;;;5093498;27;20479;-60
2023/05/17 06:40:19;;;;;;;17.23;5.77;;;12.60;95.50;;;;;;5077157;27;20691;-61
2023/05/17 06:42:46;;;;;;;25.70;4.93;;;12.60;96.10;;;;;;5078551;27;20925;-61
2023/05/17 06:45:13;;;;;;;21.27;5.97;;;12.80;95.20;;;;;;5086783;27;20484;-60
2023/05/17 06:47:40;;;;;;;9.60;5.50;;;12.90;95.10;;;;;;5085779;27;20580;-61
2023/05/17 06:50:08;;;;;;;14.20;6.07;;;13.10;95.40;;;;;;5065367;28;21000;-61
2023/05/17 06:52:36;;;;;;;12.10;5.77;;;13.30;94.60;;;;;;5077837;28;20477;-61
2023/05/17 06:55:04;;;;;;;12.27;5.80;;;13.40;94.20;;;;;;5098694;27;20470;-61
2023/05/17 06:57:31;;;;;;;10.83;4.70;;;13.60;93.50;;;;;;5089600;27;20588;-62
2023/05/17 06:59:58;;;;;;;15.00;6.03;;;13.60;92.80;;;;;;5083730;27;21035;-61
2023/05/17 07:02:25;;;;;;;13.13;6.40;;;13.80;93.80;;;;;;5090544;27;20485;-61
2023/05/17 07:04:51;;;;;;;9.40;5.60;;;13.90;93.70;;;;;;5094951;27;20982;-60
2023/05/17 07:07:18;;;;;;;11.07;6.40;;;14.00;93.60;;;;;;5083130;28;20474;-61
2023/05/17 07:09:46;;;;;;;13.03;7.70;;;14.20;92.90;;;;;;5071145;27;20481;-61
2023/05/17 07:12:13;;;;;;;10.90;6.00;;;14.30;93.80;;;;;;5075836;28;21215;-61
2023/05/17 07:14:40;;;;;;;13.97;6.20;;;14.30;92.90;;;;;;5054782;27;20493;-61
2023/05/17 07:17:07;;;;;;;7.33;4.00;;;14.40;92.20;;;;;;5081053;28;20479;-60
2023/05/17 07:19:33;;;;;;;10.90;4.80;;;14.40;92.00;;;;;;5065403;28;20466;-60
2023/05/17 07:22:00;;;;;;;7.30;5.07;;;14.40;92.70;;;;;;5077216;28;20489;-61
2023/05/17 07:24:28;;;;;;;9.50;5.10;;;14.40;92.50;;;;;;5072261;27;20477;-60
2023/05/17 07:26:56;;;;;;;14.47;6.07;;;14.30;91.60;;;;;;5091206;27;20484;-61
2023/05/17 07:29:23;;;;;;;12.53;5.63;;;14.20;91.80;;;;;;5070860;28;20564;-61
2023/05/17 07:31:50;;;;;;;13.13;5.20;;;14.20;91.90;;;;;;5078547;27;20485;-61
2023/05/17 07:34:16;;;;;;;8.27;4.90;;;14.20;92.30;;;;;;5087001;27;20538;-61
2023/05/17 07:36:43;;;;;;;14.93;5.37;;;14.20;92.00;;;;;;5086002;27;21184;-60
2023/05/17 07:39:10;;;;;;;15.17;5.50;;;14.10;91.40;;;;;;5084860;27;21009;-61
2023/05/17 07:41:37;;;;;;;7.03;4.87;;;14.10;91.90;;;;;;5105302;27;21057;-61
2023/05/17 07:44:05;;;;;;;9.43;5.10;;;14.20;92.10;;;;;;5104629;27;20481;-60
2023/05/17 07:46:32;;;;;;;12.10;5.73;;;14.20;92.40;;;;;;5089597;27;20480;-61
2023/05/17 07:48:59;;;;;;;14.37;5.50;;;14.30;92.70;;;;;;5081307;27;20530;-61
2023/05/17 07:51:26;;;;;;;11.33;4.60;;;14.40;92.30;;;;;;5082287;27;20479;-61
2023/05/17 07:53:53;;;;;;;17.60;5.77;;;14.60;92.20;;;;;;5068568;28;20848;-61
2023/05/17 07:56:20;;;;;;;15.77;5.87;;;14.50;91.70;;;;;;5091835;28;20481;-61
2023/05/17 07:58:47;;;;;;;14.33;6.90;;;14.50;91.40;;;;;;5063436;28;20486;-60
2023/05/17 08:01:15;;;;;;;14.27;5.20;;;14.40;91.10;;;;;;5067995;28;20486;-60
2023/05/17 08:03:46;;;;;;;8.90;5.50;;;14.60;91.20;;;;;;5090727;27;20809;-61
2023/05/17 08:06:14;;;;;;;11.20;5.90;;;14.80;92.20;;;;;;5087326;28;20473;-62
2023/05/17 08:08:41;;;;;;;8.90;4.80;;;15.10;90.80;;;;;;5080121;27;20473;-61
2023/05/17 08:11:08;;;;;;;13.93;4.73;;;15.10;90.30;;;;;;5095433;27;20493;-61
2023/05/17 08:13:35;;;;;;;14.20;5.33;;;15.10;90.40;;;;;;5076800;28;20487;-61
2023/05/17 08:16:02;;;;;;;7.23;4.70;;;14.90;90.00;;;;;;5092337;27;20992;-60
2023/05/17 08:18:30;;;;;;;10.30;5.17;;;14.80;90.50;;;;;;5065938;28;20584;-60
2023/05/17 08:20:57;;;;;;;9.07;4.60;;;14.80;90.20;;;;;;5090274;27;21044;-60
2023/05/17 08:23:24;;;;;;;11.57;5.67;;;14.80;90.00;;;;;;5071907;28;20475;-61
2023/05/17 08:25:51;;;;;;;11.40;4.70;;;14.90;90.40;;;;;;5065207;28;20829;-61
2023/05/17 08:28:19;;;;;;;12.10;4.57;;;14.90;89.90;;;;;;5076405;27;20472;-61
2023/05/17 08:30:46;;;;;;;8.37;4.63;;;14.80;89.90;;;;;;5063046;27;20478;-60
2023/05/17 08:33:12;;;;;;;10.17;4.90;;;14.60;89.70;;;;;;5078008;27;20492;-60
2023/05/17 08:35:40;;;;;;;14.37;6.03;;;14.40;90.10;;;;;;5081280;28;20841;-61
2023/05/17 08:38:07;;;;;;;8.83;5.10;;;14.40;90.60;;;;;;5068165;28;20914;-60
2023/05/17 08:40:34;;;;;;;11.53;5.53;;;14.30;90.40;;;;;;5078315;28;20483;-61
2023/05/17 08:43:02;;;;;;;8.73;5.20;;;14.30;90.40;;;;;;5067370;28;20490;-61
2023/05/17 08:45:31;;;;;;;9.00;6.13;;;14.30;90.70;;;;;;5057490;28;20837;-61
2023/05/17 08:48:00;;;;;;;9.33;5.00;;;14.20;90.40;;;;;;5109079;27;20480;-61
2023/05/17 08:50:30;;;;;;;13.70;4.70;;;14.30;91.00;;;;;;5085945;28;20513;-61
2023/05/17 08:52:58;;;;;;;11.20;4.10;;;14.30;91.30;;;;;;5066018;28;20474;-61
2023/05/17 08:55:28;;;;;;;9.17;5.27;;;14.30;90.30;;;;;;5073114;28;20494;-61
2023/05/17 08:57:55;;;;;;;9.07;5.27;;;14.40;90.90;;;;;;5064110;28;20886;-61
2023/05/17 09:00:24;;;;;;;7.37;4.80;;;14.40;90.80;;;;;;5071115;28;20940;-61
2023/05/17 09:02:51;;;;;;;15.10;6.17;;;14.30;90.50;;;;;;5050108;28;20463;-61
2023/05/17 09:05:19;;;;;;;7.30;5.00;;;14.40;91.10;;;;;;5072010;27;20866;-61
2023/05/17 09:07:48;;;;;;;10.83;5.53;;;14.40;90.90;;;;;;5064971;28;20567;-61
2023/05/17 09:10:16;;;;;;;10.20;5.30;;;14.40;90.00;;;;;;5065853;28;20925;-61
2023/05/17 09:12:43;;;;;;;12.73;5.43;;;14.40;90.70;;;;;;5085318;28;20563;-61
2023/05/17 09:15:16;;;;;;;7.20;4.57;;;14.50;90.80;;;;;;5072060;28;21020;-61
2023/05/17 09:17:43;;;;;;;8.00;4.83;;;14.60;90.60;;;;;;5063985;28;20588;-61
2023/05/17 09:20:11;;;;;;;7.67;4.90;;;14.70;90.60;;;;;;5066072;28;20474;-61
2023/05/17 09:22:38;;;;;;;12.93;5.90;;;14.90;91.10;;;;;;5070906;28;20476;-61
2023/05/17 09:25:06;;;;;;;10.00;4.30;;;15.00;90.90;;;;;;5093260;28;20486;-61
2023/05/17 09:27:34;;;;;;;10.97;4.43;;;15.10;88.70;;;;;;5067788;28;20503;-61
2023/05/17 09:30:01;;;;;;;13.30;5.50;;;15.10;87.90;;;;;;5077788;27;21124;-61
2023/05/17 09:32:28;;;;;;;7.90;4.17;;;15.10;88.10;;;;;;5093030;27;20485;-61
2023/05/17 09:34:56;;;;;;;8.10;5.10;;;15.10;89.10;;;;;;5053893;28;20490;-61
2023/05/17 09:37:24;;;;;;;11.37;4.80;;;15.00;88.90;;;;;;5075297;28;20565;-60
2023/05/17 09:39:52;;;;;;;10.77;5.40;;;15.30;90.50;;;;;;5065238;28;21043;-60
2023/05/17 09:42:19;;;;;;;8.40;5.00;;;15.50;90.10;;;;;;5072783;28;20979;-60
2023/05/17 09:44:51;;;;;;;6.07;3.40;;;15.60;88.50;;;;;;5102926;27;20475;-60
2023/05/17 09:47:26;;;;;;;8.27;3.40;;;15.70;87.30;;;;;;5082178;27;20575;-60
2023/05/17 09:49:53;;;;;;;6.07;3.60;;;15.70;87.30;;;;;;5098377;27;20734;-60
2023/05/17 09:52:20;;;;;;;7.50;3.63;;;15.40;86.00;;;;;;5066397;28;20474;-61
2023/05/17 09:54:53;;;;;;;6.27;3.93;;;15.30;85.40;;;;;;5091405;27;20479;-60
2023/05/17 09:57:20;;;;;;;5.70;3.60;;;15.10;85.20;;;;;;5080733;27;20499;-61
2023/05/17 09:59:49;;;;;;;12.90;4.00;;;15.00;85.60;;;;;;5074272;27;20965;-60
2023/05/17 10:02:22;;;;;;;9.90;3.73;;;15.10;86.00;;;;;;5086692;27;20494;-60
2023/05/17 10:04:50;;;;;;;8.80;3.70;;;14.90;84.10;;;;;;5083276;27;20483;-60
2023/05/17 10:07:20;;;;;;;6.43;3.50;;;14.80;86.20;;;;;;5083728;27;20631;-60
2023/05/17 10:09:48;;;;;;;6.27;3.27;;;14.80;86.90;;;;;;5072917;27;20488;-60
2023/05/17 10:12:18;;;;;;;9.30;3.83;;;14.80;86.30;;;;;;5073912;28;20497;-60
2023/05/17 10:14:45;;;;;;;10.83;3.80;;;14.70;87.30;;;;;;5088710;27;20497;-60
2023/05/17 10:17:15;;;;;;;9.83;3.80;;;14.80;88.10;;;;;;5085879;27;20547;-60
2023/05/17 10:19:42;;;;;;;4.83;3.60;;;14.90;86.90;;;;;;5064379;28;20828;-61
2023/05/17 10:22:10;;;;;;;5.27;4.17;;;15.00;85.30;;;;;;5075672;27;20485;-61
2023/05/17 10:24:38;;;;;;;8.93;3.37;;;15.00;87.50;;;;;;5083254;27;20481;-61
2023/05/17 10:27:06;;;;;;;6.50;3.80;;;15.00;85.90;;;;;;5089564;28;20590;-61
2023/05/17 10:29:34;;;;;;;6.77;3.70;;;14.90;85.00;;;;;;5088729;27;21014;-61
2023/05/17 10:32:06;;;;;;;3.80;3.40;;;14.80;84.70;;;;;;5076752;27;20555;-60
2023/05/17 10:34:35;;;;;;;7.73;3.27;;;14.80;84.70;;;;;;5069803;27;20507;-60
2023/05/17 10:37:04;;;;;;;6.87;4.13;;;14.70;85.70;;;;;;5094843;27;20551;-61
2023/05/17 10:39:33;;;;;;;7.90;4.43;;;14.80;86.30;;;;;;5079887;27;20478;-62
2023/05/17 10:42:03;;;;;;;8.30;3.90;;;14.80;86.40;;;;;;5079718;27;20483;-61
2023/05/17 10:44:32;;;;;;;12.10;4.53;;;14.90;87.80;;;;;;5072038;27;20484;-61
2023/05/17 10:47:00;;;;;;;6.03;4.13;;;15.00;87.00;;;;;;5097817;27;20885;-61
2023/05/17 10:49:30;;;;;;;8.77;4.13;;;15.10;86.30;;;;;;5098656;27;20468;-61
2023/05/17 10:51:59;;;;;;;8.37;3.93;;;15.10;86.60;;;;;;5076686;28;20554;-61
2023/05/17 10:54:37;;;;;;;7.97;4.07;;;15.30;85.50;;;;;;5091480;28;20460;-61
2023/05/17 10:57:05;;;;;;;9.27;4.20;;;15.30;85.70;;;;;;5084466;27;20568;-61
2023/05/17 10:59:34;;;;;;;17.73;7.30;;;15.50;83.60;;;;;;5102736;27;20484;-61
2023/05/17 11:02:04;;;;;;;10.03;4.70;;;15.70;85.10;;;;;;5069373;28;20553;-61
2023/05/17 11:04:36;;;;;;;6.03;4.00;;;15.80;85.10;;;;;;5079582;27;21231;-61
2023/05/17 11:07:25;;;;;;;6.70;4.13;;;16.30;86.50;;;;;;5083319;27;20541;-61
2023/05/17 11:09:54;;;;;;;6.93;4.17;;;16.50;84.20;;;;;;5074252;28;20480;-61
2023/05/17 11:12:34;;;;;;;11.40;4.60;;;17.00;83.20;;;;;;5069392;27;20572;-62
2023/05/17 11:15:05;;;;;;;5.57;4.07;;;17.00;80.10;;;;;;5090323;27;20470;-61
2023/05/17 11:17:37;;;;;;;10.33;4.90;;;17.00;81.80;;;;;;5066834;27;20478;-62
2023/05/17 11:20:10;;;;;;;8.83;4.20;;;17.00;81.30;;;;;;5090290;27;21138;-61
2023/05/17 11:22:41;;;;;;;7.40;4.67;;;17.00;82.10;;;;;;5069090;27;20488;-62
2023/05/17 11:25:10;;;;;;;12.20;5.37;;;16.90;83.90;;;;;;5071145;27;20981;-62
2023/05/17 11:27:39;;;;;;;5.23;4.03;;;16.90;82.10;;;;;;5068941;27;21030;-61
2023/05/17 11:30:17;;;;;;;5.40;4.27;;;16.90;83.40;;;;;;5085969;27;20509;-62
2023/05/17 11:32:47;;;;;;;9.87;4.10;;;16.90;83.60;;;;;;5084424;27;20525;-62
2023/05/17 11:35:15;;;;;;;14.50;4.93;;;16.90;84.10;;;;;;5092926;27;20504;-62
2023/05/17 11:37:44;;;;;;;9.87;5.20;;;16.70;81.50;;;;;;5086941;27;20490;-62
2023/05/17 11:40:13;;;;;;;6.90;3.63;;;16.80;82.00;;;;;;5043390;28;20506;-62
2023/05/17 11:42:40;;;;;;;9.10;4.30;;;16.60;81.20;;;;;;5081842;28;21240;-62
2023/05/17 11:45:08;;;;;;;7.50;5.30;;;16.50;82.80;;;;;;5086026;27;20479;-62
2023/05/17 11:47:40;;;;;;;12.93;5.60;;;16.40;82.50;;;;;;5084068;27;20475;-61
2023/05/17 11:50:07;;;;;;;7.67;4.60;;;16.40;83.00;;;;;;5068661;27;20510;-61
2023/05/17 11:52:34;;;;;;;9.40;4.10;;;16.40;82.10;;;;;;5100713;27;20474;-62
2023/05/17 11:55:03;;;;;;;6.43;4.70;;;16.50;81.20;;;;;;5093917;27;20472;-61
2023/05/17 11:57:31;;;;;;;6.97;4.13;;;16.60;81.70;;;;;;5074432;27;20828;-62
2023/05/17 12:00:02;;;;;;;8.83;4.37;;;16.80;83.60;;;;;;5072079;28;20487;-62
2023/05/17 12:02:31;;;;;;;5.43;4.20;;;16.80;81.30;;;;;;5071893;28;20490;-62
2023/05/17 12:04:58;;;;;;;11.00;6.30;;;17.00;82.50;;;;;;5074329;27;20490;-61
2023/05/17 12:07:25;;;;;;;10.83;6.50;;;17.00;83.00;;;;;;5107263;27;20485;-62
2023/05/17 12:09:52;;;;;;;9.00;6.07;;;17.40;83.40;;;;;;5075300;28;20485;-62
2023/05/17 12:12:22;;;;;;;13.90;6.63;;;17.90;83.30;;;;;;5073271;27;20968;-61
2023/05/17 12:14:49;;;;;;;17.03;6.53;;;18.30;81.40;;;;;;5083693;27;20488;-62
2023/05/17 12:17:28;;;;;;;12.23;6.67;;;18.40;82.10;;;;;;5091309;27;20466;-61
2023/05/17 12:19:54;;;;;;;9.77;5.40;;;18.50;79.80;;;;;;5076625;27;20484;-62
2023/05/17 12:22:21;;;;;;;15.13;6.60;;;18.30;78.10;;;;;;5104746;27;20477;-61
2023/05/17 12:24:48;;;;;;;11.30;6.10;;;18.10;78.30;;;;;;5096511;27;20468;-62
2023/05/17 12:27:26;;;;;;;8.30;5.30;;;18.00;77.90;;;;;;5056494;27;20470;-62
2023/05/17 12:29:53;;;;;;;11.43;6.07;;;17.80;79.10;;;;;;5080135;27;20918;-62
2023/05/17 12:32:20;;;;;;;11.40;4.90;;;17.90;82.30;;;;;;5084806;27;20484;-61
2023/05/17 12:34:48;;;;;;;7.80;5.60;;;18.00;81.20;;;;;;5096341;27;20507;-62
2023/05/17 12:37:15;;;;;;;9.20;5.17;;;18.00;78.40;;;;;;5065911;27;20582;-62
2023/05/17 12:39:42;;;;;;;11.40;5.40;;;18.10;79.90;;;;;;5090700;27;20470;-62
2023/05/17 12:42:10;;;;;;;11.90;6.50;;;17.80;79.60;;;;;;5077127;28;21057;-62
2023/05/17 12:44:38;;;;;;;6.90;5.27;;;17.80;80.40;;;;;;5081121;28;20486;-61
2023/05/17 12:47:06;;;;;;;12.70;5.80;;;;;;;;;;5076713;28;20776;-62
2023/05/17 12:49:38;;;;;;;11.40;5.20;;;17.50;79.30;;;;;;5063342;28;20483;-61
2023/05/17 12:52:06;;;;;;;6.47;4.40;;;17.40;80.50;;;;;;5063690;28;20473;-61